sensor_id;sensor_type;location;lat;lon;timestamp;pressure;altitude;pressure_sealevel;temperature;humidity
59686;BME280;45554;51.096;16.976;2023-08-21T00:00:16;100616.40;;;23.47;75.34
59686;BME280;45554;51.096;16.976;2023-08-21T00:03:03;100617.99;;;23.43;75.45
59686;BME280;45554;51.096;16.976;2023-08-21T00:05:29;100620.44;;;23.41;75.75
59686;BME280;45554;51.096;16.976;2023-08-21T00:07:56;100627.89;;;23.38;75.98
59686;BME280;45554;51.096;16.976;2023-08-21T00:10:22;100630.67;;;23.34;76.00
59686;BME280;45554;51.096;16.976;2023-08-21T00:12:49;100631.23;;;23.30;76.20
59686;BME280;45554;51.096;16.976;2023-08-21T00:15:15;100633.09;;;23.25;76.31
59686;BME280;45554;51.096;16.976;2023-08-21T00:17:43;100630.49;;;23.19;76.28
59686;BME280;45554;51.096;16.976;2023-08-21T00:20:10;100629.38;;;23.13;76.64
59686;BME280;45554;51.096;16.976;2023-08-21T00:22:36;100623.38;;;23.07;76.87
59686;BME280;45554;51.096;16.976;2023-08-21T00:25:03;100618.59;;;23.01;76.84
59686;BME280;45554;51.096;16.976;2023-08-21T00:27:30;100613.88;;;22.97;77.10
59686;BME280;45554;51.096;16.976;2023-08-21T00:29:57;100616.81;;;22.92;77.52
59686;BME280;45554;51.096;16.976;2023-08-21T00:32:24;100618.45;;;22.88;77.51
59686;BME280;45554;51.096;16.976;2023-08-21T00:34:51;100616.75;;;22.86;78.00
59686;BME280;45554;51.096;16.976;2023-08-21T00:37:18;100614.68;;;22.82;78.29
59686;BME280;45554;51.096;16.976;2023-08-21T00:39:45;100618.31;;;22.79;78.36
59686;BME280;45554;51.096;16.976;2023-08-21T00:42:15;100613.90;;;22.77;78.60
59686;BME280;45554;51.096;16.976;2023-08-21T00:44:41;100614.13;;;22.74;78.77
59686;BME280;45554;51.096;16.976;2023-08-21T00:47:09;100607.64;;;22.71;78.88
59686;BME280;45554;51.096;16.976;2023-08-21T00:49:36;100605.12;;;22.70;78.92
59686;BME280;45554;51.096;16.976;2023-08-21T00:52:03;100596.61;;;22.69;79.22
59686;BME280;45554;51.096;16.976;2023-08-21T00:54:30;100593.54;;;22.70;79.39
59686;BME280;45554;51.096;16.976;2023-08-21T00:56:57;100596.71;;;22.70;79.46
59686;BME280;45554;51.096;16.976;2023-08-21T00:59:24;100594.61;;;22.71;79.50
59686;BME280;45554;51.096;16.976;2023-08-21T01:01:51;100596.70;;;22.72;79.68
59686;BME280;45554;51.096;16.976;2023-08-21T01:04:17;100599.88;;;22.72;79.69
59686;BME280;45554;51.096;16.976;2023-08-21T01:06:44;100596.10;;;22.74;79.88
59686;BME280;45554;51.096;16.976;2023-08-21T01:09:17;100596.71;;;22.75;80.00
59686;BME280;45554;51.096;16.976;2023-08-21T01:11:55;100590.44;;;22.77;80.15
59686;BME280;45554;51.096;16.976;2023-08-21T01:17:16;100589.75;;;22.82;80.36
59686;BME280;45554;51.096;16.976;2023-08-21T01:19:44;100592.68;;;22.83;80.37
59686;BME280;45554;51.096;16.976;2023-08-21T01:22:12;100601.48;;;22.86;80.33
59686;BME280;45554;51.096;16.976;2023-08-21T01:24:39;100601.98;;;22.87;80.29
59686;BME280;45554;51.096;16.976;2023-08-21T01:27:06;100608.69;;;22.87;80.59
59686;BME280;45554;51.096;16.976;2023-08-21T01:29:32;100608.98;;;22.86;80.62
59686;BME280;45554;51.096;16.976;2023-08-21T01:32:07;100607.42;;;22.84;80.33
59686;BME280;45554;51.096;16.976;2023-08-21T01:34:36;100605.96;;;22.81;80.16
59686;BME280;45554;51.096;16.976;2023-08-21T01:37:04;100603.41;;;22.78;80.33
59686;BME280;45554;51.096;16.976;2023-08-21T01:39:30;100607.23;;;22.75;80.44
59686;BME280;45554;51.096;16.976;2023-08-21T01:41:57;100610.41;;;22.74;80.45
59686;BME280;45554;51.096;16.976;2023-08-21T01:44:24;100606.95;;;22.73;80.67
59686;BME280;45554;51.096;16.976;2023-08-21T01:46:52;100608.52;;;22.72;81.10
59686;BME280;45554;51.096;16.976;2023-08-21T01:49:19;100609.68;;;22.71;81.44
59686;BME280;45554;51.096;16.976;2023-08-21T01:51:46;100603.30;;;22.68;81.21
59686;BME280;45554;51.096;16.976;2023-08-21T01:54:12;100599.80;;;22.68;81.65
59686;BME280;45554;51.096;16.976;2023-08-21T01:56:39;100604.83;;;22.67;82.18
59686;BME280;45554;51.096;16.976;2023-08-21T01:59:06;100605.95;;;22.65;82.43
59686;BME280;45554;51.096;16.976;2023-08-21T02:01:33;100615.17;;;22.62;82.70
59686;BME280;45554;51.096;16.976;2023-08-21T02:04:00;100625.94;;;22.58;82.78
59686;BME280;45554;51.096;16.976;2023-08-21T02:06:27;100630.55;;;22.55;83.14
59686;BME280;45554;51.096;16.976;2023-08-21T02:08:53;100635.58;;;22.51;83.30
59686;BME280;45554;51.096;16.976;2023-08-21T02:11:20;100628.79;;;22.47;83.72
59686;BME280;45554;51.096;16.976;2023-08-21T02:13:47;100628.11;;;22.45;83.92
59686;BME280;45554;51.096;16.976;2023-08-21T02:16:13;100632.51;;;22.44;84.49
59686;BME280;45554;51.096;16.976;2023-08-21T02:18:41;100649.64;;;22.42;84.63
59686;BME280;45554;51.096;16.976;2023-08-21T02:21:07;100663.70;;;22.37;85.24
59686;BME280;45554;51.096;16.976;2023-08-21T02:23:34;100665.33;;;22.30;87.27
59686;BME280;45554;51.096;16.976;2023-08-21T02:26:00;100660.64;;;22.21;86.93
59686;BME280;45554;51.096;16.976;2023-08-21T02:28:27;100659.29;;;22.15;87.37
59686;BME280;45554;51.096;16.976;2023-08-21T02:30:53;100670.09;;;22.08;88.63
59686;BME280;45554;51.096;16.976;2023-08-21T02:33:20;100684.08;;;22.02;89.29
59686;BME280;45554;51.096;16.976;2023-08-21T02:35:47;100703.94;;;21.94;90.69
59686;BME280;45554;51.096;16.976;2023-08-21T02:38:13;100725.52;;;21.87;91.40
59686;BME280;45554;51.096;16.976;2023-08-21T02:40:40;100777.24;;;21.79;95.46
59686;BME280;45554;51.096;16.976;2023-08-21T02:43:07;100808.13;;;21.75;98.44
59686;BME280;45554;51.096;16.976;2023-08-21T02:45:33;100815.20;;;21.68;99.86
59686;BME280;45554;51.096;16.976;2023-08-21T02:47:59;100811.16;;;21.56;100.00
59686;BME280;45554;51.096;16.976;2023-08-21T02:50:27;100802.30;;;21.30;100.00
59686;BME280;45554;51.096;16.976;2023-08-21T02:52:53;100789.16;;;21.09;100.00
59686;BME280;45554;51.096;16.976;2023-08-21T02:55:20;100782.48;;;20.93;100.00
59686;BME280;45554;51.096;16.976;2023-08-21T02:57:47;100754.87;;;20.81;100.00
59686;BME280;45554;51.096;16.976;2023-08-21T03:00:14;100724.80;;;20.67;100.00
59686;BME280;45554;51.096;16.976;2023-08-21T03:02:40;100702.16;;;20.47;100.00
59686;BME280;45554;51.096;16.976;2023-08-21T03:05:11;100684.57;;;20.25;100.00
59686;BME280;45554;51.096;16.976;2023-08-21T03:07:38;100677.91;;;20.08;100.00
59686;BME280;45554;51.096;16.976;2023-08-21T03:10:05;100682.93;;;19.97;100.00
59686;BME280;45554;51.096;16.976;2023-08-21T03:12:33;100678.10;;;19.85;100.00
59686;BME280;45554;51.096;16.976;2023-08-21T03:14:59;100677.85;;;19.78;100.00
59686;BME280;45554;51.096;16.976;2023-08-21T03:17:26;100673.50;;;19.74;100.00
59686;BME280;45554;51.096;16.976;2023-08-21T03:19:53;100666.75;;;19.74;100.00
59686;BME280;45554;51.096;16.976;2023-08-21T03:22:19;100667.73;;;19.75;100.00
59686;BME280;45554;51.096;16.976;2023-08-21T03:24:46;100670.66;;;19.78;100.00
59686;BME280;45554;51.096;16.976;2023-08-21T03:27:14;100669.70;;;19.83;100.00
59686;BME280;45554;51.096;16.976;2023-08-21T03:29:41;100665.58;;;19.86;100.00
59686;BME280;45554;51.096;16.976;2023-08-21T03:32:10;100660.67;;;19.87;100.00
59686;BME280;45554;51.096;16.976;2023-08-21T03:34:37;100660.45;;;19.87;100.00
59686;BME280;45554;51.096;16.976;2023-08-21T03:37:04;100674.88;;;19.89;100.00
59686;BME280;45554;51.096;16.976;2023-08-21T03:39:31;100680.76;;;19.89;100.00
59686;BME280;45554;51.096;16.976;2023-08-21T03:42:00;100687.88;;;19.91;100.00
59686;BME280;45554;51.096;16.976;2023-08-21T03:44:27;100691.87;;;19.90;100.00
59686;BME280;45554;51.096;16.976;2023-08-21T03:46:53;100684.45;;;19.89;100.00
59686;BME280;45554;51.096;16.976;2023-08-21T03:49:20;100675.48;;;19.92;100.00
59686;BME280;45554;51.096;16.976;2023-08-21T03:51:48;100667.37;;;19.96;100.00
59686;BME280;45554;51.096;16.976;2023-08-21T03:54:14;100672.98;;;20.01;100.00
59686;BME280;45554;51.096;16.976;2023-08-21T03:56:41;100676.55;;;20.05;100.00
59686;BME280;45554;51.096;16.976;2023-08-21T03:59:08;100681.80;;;20.10;100.00
59686;BME280;45554;51.096;16.976;2023-08-21T04:01:34;100684.71;;;20.13;100.00
59686;BME280;45554;51.096;16.976;2023-08-21T04:04:01;100683.98;;;20.17;100.00
59686;BME280;45554;51.096;16.976;2023-08-21T04:06:28;100697.23;;;20.21;100.00
59686;BME280;45554;51.096;16.976;2023-08-21T04:08:55;100705.59;;;20.23;100.00
59686;BME280;45554;51.096;16.976;2023-08-21T04:11:22;100709.23;;;20.24;100.00
59686;BME280;45554;51.096;16.976;2023-08-21T04:13:48;100712.25;;;20.24;100.00
59686;BME280;45554;51.096;16.976;2023-08-21T04:16:14;100711.68;;;20.24;100.00
59686;BME280;45554;51.096;16.976;2023-08-21T04:18:42;100712.58;;;20.24;100.00
59686;BME280;45554;51.096;16.976;2023-08-21T04:21:09;100715.39;;;20.24;100.00
59686;BME280;45554;51.096;16.976;2023-08-21T04:23:36;100715.23;;;20.22;100.00
59686;BME280;45554;51.096;16.976;2023-08-21T04:26:03;100718.87;;;20.22;100.00
59686;BME280;45554;51.096;16.976;2023-08-21T04:28:30;100733.86;;;20.21;100.00
59686;BME280;45554;51.096;16.976;2023-08-21T04:30:57;100738.30;;;20.19;100.00
59686;BME280;45554;51.096;16.976;2023-08-21T04:33:25;100728.92;;;20.19;100.00
59686;BME280;45554;51.096;16.976;2023-08-21T04:35:52;100710.93;;;20.16;100.00
59686;BME280;45554;51.096;16.976;2023-08-21T04:38:18;100701.13;;;20.17;100.00
59686;BME280;45554;51.096;16.976;2023-08-21T04:40:45;100693.09;;;20.15;100.00
59686;BME280;45554;51.096;16.976;2023-08-21T04:43:13;100687.47;;;20.12;100.00
59686;BME280;45554;51.096;16.976;2023-08-21T04:45:47;100698.95;;;20.07;100.00
59686;BME280;45554;51.096;16.976;2023-08-21T04:48:14;100703.09;;;20.05;100.00
59686;BME280;45554;51.096;16.976;2023-08-21T04:50:40;100708.14;;;20.04;100.00
59686;BME280;45554;51.096;16.976;2023-08-21T04:53:07;100708.30;;;20.00;100.00
59686;BME280;45554;51.096;16.976;2023-08-21T04:55:34;100712.02;;;19.94;100.00
59686;BME280;45554;51.096;16.976;2023-08-21T04:58:01;100722.70;;;19.87;100.00
59686;BME280;45554;51.096;16.976;2023-08-21T05:00:27;100733.06;;;19.83;100.00
59686;BME280;45554;51.096;16.976;2023-08-21T05:02:54;100744.55;;;19.80;100.00
59686;BME280;45554;51.096;16.976;2023-08-21T05:05:21;100744.09;;;19.76;100.00
59686;BME280;45554;51.096;16.976;2023-08-21T05:07:48;100740.39;;;19.72;100.00
59686;BME280;45554;51.096;16.976;2023-08-21T05:10:14;100733.45;;;19.66;100.00
59686;BME280;45554;51.096;16.976;2023-08-21T05:12:42;100732.37;;;19.62;100.00
59686;BME280;45554;51.096;16.976;2023-08-21T05:15:09;100742.11;;;19.58;100.00
59686;BME280;45554;51.096;16.976;2023-08-21T05:17:36;100745.51;;;19.58;100.00
59686;BME280;45554;51.096;16.976;2023-08-21T05:20:04;100742.33;;;19.57;100.00
59686;BME280;45554;51.096;16.976;2023-08-21T05:22:31;100750.09;;;19.56;100.00
59686;BME280;45554;51.096;16.976;2023-08-21T05:24:58;100745.98;;;19.56;100.00
59686;BME280;45554;51.096;16.976;2023-08-21T05:27:25;100746.55;;;19.60;100.00
59686;BME280;45554;51.096;16.976;2023-08-21T05:29:51;100764.89;;;19.60;100.00
59686;BME280;45554;51.096;16.976;2023-08-21T05:32:19;100754.65;;;19.61;100.00
59686;BME280;45554;51.096;16.976;2023-08-21T05:34:46;100751.92;;;19.64;100.00
59686;BME280;45554;51.096;16.976;2023-08-21T05:37:12;100739.63;;;19.71;100.00
59686;BME280;45554;51.096;16.976;2023-08-21T05:39:39;100747.41;;;19.73;100.00
59686;BME280;45554;51.096;16.976;2023-08-21T05:42:06;100753.44;;;19.78;100.00
59686;BME280;45554;51.096;16.976;2023-08-21T05:44:32;100755.95;;;19.79;100.00
59686;BME280;45554;51.096;16.976;2023-08-21T05:47:00;100762.52;;;19.87;100.00
59686;BME280;45554;51.096;16.976;2023-08-21T05:49:27;100754.81;;;19.99;100.00
59686;BME280;45554;51.096;16.976;2023-08-21T05:51:53;100755.94;;;20.06;100.00
59686;BME280;45554;51.096;16.976;2023-08-21T05:54:20;100757.05;;;20.12;100.00
59686;BME280;45554;51.096;16.976;2023-08-21T05:56:47;100756.80;;;20.25;100.00
59686;BME280;45554;51.096;16.976;2023-08-21T05:59:20;100760.20;;;20.37;100.00
59686;BME280;45554;51.096;16.976;2023-08-21T06:01:53;100759.90;;;20.42;100.00
59686;BME280;45554;51.096;16.976;2023-08-21T06:04:19;100762.27;;;20.50;100.00
59686;BME280;45554;51.096;16.976;2023-08-21T06:06:57;100760.75;;;20.57;100.00
59686;BME280;45554;51.096;16.976;2023-08-21T06:09:23;100761.02;;;20.60;100.00
59686;BME280;45554;51.096;16.976;2023-08-21T06:11:53;100757.59;;;20.54;100.00
59686;BME280;45554;51.096;16.976;2023-08-21T06:14:19;100752.92;;;20.49;100.00
59686;BME280;45554;51.096;16.976;2023-08-21T06:16:47;100752.90;;;20.51;100.00
59686;BME280;45554;51.096;16.976;2023-08-21T06:19:13;100760.73;;;20.61;100.00
59686;BME280;45554;51.096;16.976;2023-08-21T06:21:40;100765.28;;;20.68;100.00
59686;BME280;45554;51.096;16.976;2023-08-21T06:24:06;100763.04;;;20.69;100.00
59686;BME280;45554;51.096;16.976;2023-08-21T06:26:33;100764.31;;;20.73;100.00
59686;BME280;45554;51.096;16.976;2023-08-21T06:29:00;100776.70;;;20.82;100.00
59686;BME280;45554;51.096;16.976;2023-08-21T06:31:26;100789.38;;;20.88;100.00
59686;BME280;45554;51.096;16.976;2023-08-21T06:33:53;100801.36;;;20.91;100.00
59686;BME280;45554;51.096;16.976;2023-08-21T06:36:20;100805.44;;;20.91;100.00
59686;BME280;45554;51.096;16.976;2023-08-21T06:38:47;100802.06;;;20.95;100.00
59686;BME280;45554;51.096;16.976;2023-08-21T06:41:13;100795.58;;;21.02;100.00
59686;BME280;45554;51.096;16.976;2023-08-21T06:43:42;100798.64;;;21.07;100.00
59686;BME280;45554;51.096;16.976;2023-08-21T06:46:13;100796.33;;;21.13;100.00
59686;BME280;45554;51.096;16.976;2023-08-21T06:48:41;100805.10;;;21.17;100.00
59686;BME280;45554;51.096;16.976;2023-08-21T06:51:07;100805.66;;;21.18;100.00
59686;BME280;45554;51.096;16.976;2023-08-21T06:53:34;100798.40;;;21.22;100.00
59686;BME280;45554;51.096;16.976;2023-08-21T06:56:03;100797.66;;;21.26;100.00
59686;BME280;45554;51.096;16.976;2023-08-21T06:58:29;100794.19;;;21.33;100.00
59686;BME280;45554;51.096;16.976;2023-08-21T07:00:56;100802.60;;;21.42;100.00
59686;BME280;45554;51.096;16.976;2023-08-21T07:03:23;100802.32;;;21.57;100.00
59686;BME280;45554;51.096;16.976;2023-08-21T07:05:53;100806.48;;;21.76;100.00
59686;BME280;45554;51.096;16.976;2023-08-21T07:08:19;100808.08;;;21.84;100.00
59686;BME280;45554;51.096;16.976;2023-08-21T07:10:46;100809.11;;;21.91;100.00
59686;BME280;45554;51.096;16.976;2023-08-21T07:13:15;100808.86;;;21.98;100.00
59686;BME280;45554;51.096;16.976;2023-08-21T07:15:42;100812.14;;;22.03;100.00
59686;BME280;45554;51.096;16.976;2023-08-21T07:18:08;100817.67;;;22.03;100.00
59686;BME280;45554;51.096;16.976;2023-08-21T07:20:35;100819.38;;;22.06;100.00
59686;BME280;45554;51.096;16.976;2023-08-21T07:23:03;100823.45;;;22.13;100.00
59686;BME280;45554;51.096;16.976;2023-08-21T07:25:29;100826.47;;;22.19;100.00
59686;BME280;45554;51.096;16.976;2023-08-21T07:27:56;100833.26;;;22.23;100.00
59686;BME280;45554;51.096;16.976;2023-08-21T07:30:22;100839.02;;;22.24;100.00
59686;BME280;45554;51.096;16.976;2023-08-21T07:32:49;100838.10;;;22.23;100.00
59686;BME280;45554;51.096;16.976;2023-08-21T07:35:16;100830.61;;;22.23;100.00
59686;BME280;45554;51.096;16.976;2023-08-21T07:37:45;100822.59;;;22.30;100.00
59686;BME280;45554;51.096;16.976;2023-08-21T07:40:12;100818.91;;;22.42;100.00
59686;BME280;45554;51.096;16.976;2023-08-21T07:42:39;100821.45;;;22.55;99.13
59686;BME280;45554;51.096;16.976;2023-08-21T07:45:06;100817.88;;;22.62;97.36
59686;BME280;45554;51.096;16.976;2023-08-21T07:47:32;100812.95;;;22.73;99.52
59686;BME280;45554;51.096;16.976;2023-08-21T07:50:02;100819.19;;;22.91;100.00
59686;BME280;45554;51.096;16.976;2023-08-21T07:52:28;100821.46;;;23.08;99.41
59686;BME280;45554;51.096;16.976;2023-08-21T07:54:55;100816.80;;;23.19;96.87
59686;BME280;45554;51.096;16.976;2023-08-21T07:57:21;100818.32;;;23.31;97.18
59686;BME280;45554;51.096;16.976;2023-08-21T07:59:48;100820.54;;;23.43;97.61
59686;BME280;45554;51.096;16.976;2023-08-21T08:02:14;100814.77;;;23.54;98.18
59686;BME280;45554;51.096;16.976;2023-08-21T08:04:41;100811.70;;;23.67;98.09
59686;BME280;45554;51.096;16.976;2023-08-21T08:07:09;100808.88;;;23.78;96.14
59686;BME280;45554;51.096;16.976;2023-08-21T08:09:39;100808.59;;;23.92;93.42
59686;BME280;45554;51.096;16.976;2023-08-21T08:12:06;100804.38;;;24.03;89.19
59686;BME280;45554;51.096;16.976;2023-08-21T08:14:35;100807.64;;;24.12;85.65
59686;BME280;45554;51.096;16.976;2023-08-21T08:17:01;100811.29;;;24.18;83.64
59686;BME280;45554;51.096;16.976;2023-08-21T08:19:28;100806.91;;;24.24;83.47
59686;BME280;45554;51.096;16.976;2023-08-21T08:21:54;100803.28;;;24.33;82.33
59686;BME280;45554;51.096;16.976;2023-08-21T08:24:21;100800.42;;;24.41;81.59
59686;BME280;45554;51.096;16.976;2023-08-21T08:26:48;100801.82;;;24.50;79.59
59686;BME280;45554;51.096;16.976;2023-08-21T08:29:15;100803.31;;;24.57;78.33
59686;BME280;45554;51.096;16.976;2023-08-21T08:31:42;100806.09;;;24.69;78.17
59686;BME280;45554;51.096;16.976;2023-08-21T08:34:09;100800.40;;;24.83;77.12
59686;BME280;45554;51.096;16.976;2023-08-21T08:36:36;100798.98;;;24.94;75.31
59686;BME280;45554;51.096;16.976;2023-08-21T08:39:02;100797.83;;;25.05;74.42
59686;BME280;45554;51.096;16.976;2023-08-21T08:41:47;100797.02;;;25.15;73.30
59686;BME280;45554;51.096;16.976;2023-08-21T08:44:16;100803.24;;;25.25;71.47
59686;BME280;45554;51.096;16.976;2023-08-21T08:46:45;100802.09;;;25.32;70.94
59686;BME280;45554;51.096;16.976;2023-08-21T08:49:11;100806.34;;;25.47;70.51
59686;BME280;45554;51.096;16.976;2023-08-21T08:51:41;100805.55;;;25.63;69.29
59686;BME280;45554;51.096;16.976;2023-08-21T08:54:10;100801.91;;;25.72;68.29
59686;BME280;45554;51.096;16.976;2023-08-21T08:56:41;100806.02;;;25.84;67.53
59686;BME280;45554;51.096;16.976;2023-08-21T08:59:07;100802.86;;;26.03;67.18
59686;BME280;45554;51.096;16.976;2023-08-21T09:01:35;100804.86;;;26.11;65.86
59686;BME280;45554;51.096;16.976;2023-08-21T09:04:02;100806.87;;;26.12;66.05
59686;BME280;45554;51.096;16.976;2023-08-21T09:06:29;100809.55;;;26.19;65.64
59686;BME280;45554;51.096;16.976;2023-08-21T09:08:56;100810.21;;;26.24;65.03
59686;BME280;45554;51.096;16.976;2023-08-21T09:11:24;100810.19;;;26.29;64.62
59686;BME280;45554;51.096;16.976;2023-08-21T09:13:51;100811.96;;;26.31;63.83
59686;BME280;45554;51.096;16.976;2023-08-21T09:16:18;100806.92;;;26.31;62.76
59686;BME280;45554;51.096;16.976;2023-08-21T09:19:20;100804.40;;;26.29;62.30
59686;BME280;45554;51.096;16.976;2023-08-21T09:21:37;100799.85;;;26.30;61.61
59686;BME280;45554;51.096;16.976;2023-08-21T09:24:04;100796.52;;;26.36;61.41
59686;BME280;45554;51.096;16.976;2023-08-21T09:26:31;100794.95;;;26.43;61.10
59686;BME280;45554;51.096;16.976;2023-08-21T09:29:02;100799.47;;;26.56;60.64
59686;BME280;45554;51.096;16.976;2023-08-21T09:31:31;100792.94;;;26.73;60.37
59686;BME280;45554;51.096;16.976;2023-08-21T09:34:01;100791.77;;;26.95;59.67
59686;BME280;45554;51.096;16.976;2023-08-21T09:36:34;100789.38;;;27.17;58.68
59686;BME280;45554;51.096;16.976;2023-08-21T09:39:04;100788.98;;;27.32;57.25
59686;BME280;45554;51.096;16.976;2023-08-21T09:41:34;100788.31;;;27.39;57.15
59686;BME280;45554;51.096;16.976;2023-08-21T09:44:00;100777.59;;;27.48;57.50
59686;BME280;45554;51.096;16.976;2023-08-21T09:46:27;100770.82;;;27.57;56.94
59686;BME280;45554;51.096;16.976;2023-08-21T09:48:55;100765.95;;;27.55;56.19
59686;BME280;45554;51.096;16.976;2023-08-21T09:51:21;100759.45;;;27.53;55.29
59686;BME280;45554;51.096;16.976;2023-08-21T09:53:51;100762.73;;;27.50;53.90
59686;BME280;45554;51.096;16.976;2023-08-21T09:56:20;100761.94;;;27.45;53.95
59686;BME280;45554;51.096;16.976;2023-08-21T09:58:50;100757.40;;;27.47;53.07
59686;BME280;45554;51.096;16.976;2023-08-21T10:01:17;100761.85;;;27.53;53.09
59686;BME280;45554;51.096;16.976;2023-08-21T10:03:45;100763.09;;;27.65;52.46
59686;BME280;45554;51.096;16.976;2023-08-21T10:06:16;100765.73;;;27.84;52.67
59686;BME280;45554;51.096;16.976;2023-08-21T10:08:46;100765.08;;;28.07;51.98
59686;BME280;45554;51.096;16.976;2023-08-21T10:11:15;100762.92;;;28.31;51.48
59686;BME280;45554;51.096;16.976;2023-08-21T10:13:46;100759.57;;;28.47;50.86
59686;BME280;45554;51.096;16.976;2023-08-21T10:16:13;100756.46;;;28.60;51.01
59686;BME280;45554;51.096;16.976;2023-08-21T10:18:43;100758.27;;;28.79;50.90
59686;BME280;45554;51.096;16.976;2023-08-21T10:21:16;100760.05;;;29.00;50.67
59686;BME280;45554;51.096;16.976;2023-08-21T10:23:46;100761.20;;;29.18;49.70
59686;BME280;45554;51.096;16.976;2023-08-21T10:26:13;100762.46;;;29.28;48.95
59686;BME280;45554;51.096;16.976;2023-08-21T10:28:44;100768.02;;;29.28;48.00
59686;BME280;45554;51.096;16.976;2023-08-21T10:31:34;100767.66;;;29.15;47.90
59686;BME280;45554;51.096;16.976;2023-08-21T10:34:07;100763.93;;;29.17;48.32
59686;BME280;45554;51.096;16.976;2023-08-21T10:39:19;100758.48;;;29.25;47.70
59686;BME280;45554;51.096;16.976;2023-08-21T10:50:05;100763.64;;;29.61;46.73
59686;BME280;45554;51.096;16.976;2023-08-21T10:52:38;100764.08;;;29.69;46.85
59686;BME280;45554;51.096;16.976;2023-08-21T10:55:08;100768.56;;;29.74;46.75
59686;BME280;45554;51.096;16.976;2023-08-21T10:57:38;100765.31;;;29.72;46.03
59686;BME280;45554;51.096;16.976;2023-08-21T11:00:14;100768.08;;;29.60;45.68
59686;BME280;45554;51.096;16.976;2023-08-21T11:02:42;100770.10;;;29.49;45.96
59686;BME280;45554;51.096;16.976;2023-08-21T11:05:09;100772.13;;;29.49;45.92
59686;BME280;45554;51.096;16.976;2023-08-21T11:07:36;100777.90;;;29.50;46.39
59686;BME280;45554;51.096;16.976;2023-08-21T11:10:09;100773.90;;;29.51;46.01
59686;BME280;45554;51.096;16.976;2023-08-21T11:12:38;100769.74;;;29.54;46.00
59686;BME280;45554;51.096;16.976;2023-08-21T11:15:05;100762.48;;;29.60;45.72
59686;BME280;45554;51.096;16.976;2023-08-21T11:17:32;100756.85;;;29.64;45.60
59686;BME280;45554;51.096;16.976;2023-08-21T11:20:00;100748.60;;;29.57;45.31
59686;BME280;45554;51.096;16.976;2023-08-21T11:22:28;100748.64;;;29.50;45.57
59686;BME280;45554;51.096;16.976;2023-08-21T11:24:58;100750.77;;;29.40;45.50
59686;BME280;45554;51.096;16.976;2023-08-21T11:27:24;100748.33;;;29.31;45.39
59686;BME280;45554;51.096;16.976;2023-08-21T11:29:52;100739.10;;;29.21;45.39
59686;BME280;45554;51.096;16.976;2023-08-21T11:32:20;100729.57;;;29.05;45.16
59686;BME280;45554;51.096;16.976;2023-08-21T11:34:51;100726.84;;;28.90;45.37
59686;BME280;45554;51.096;16.976;2023-08-21T11:37:21;100729.83;;;28.89;46.04
59686;BME280;45554;51.096;16.976;2023-08-21T11:39:51;100732.09;;;29.02;46.49
59686;BME280;45554;51.096;16.976;2023-08-21T11:42:18;100735.00;;;29.14;46.35
59686;BME280;45554;51.096;16.976;2023-08-21T11:44:52;100734.34;;;29.26;45.97
59686;BME280;45554;51.096;16.976;2023-08-21T11:47:21;100736.31;;;29.35;45.57
59686;BME280;45554;51.096;16.976;2023-08-21T11:49:48;100732.85;;;29.42;45.46
59686;BME280;45554;51.096;16.976;2023-08-21T11:52:19;100732.52;;;29.46;45.41
59686;BME280;45554;51.096;16.976;2023-08-21T11:54:47;100731.23;;;29.58;45.18
59686;BME280;45554;51.096;16.976;2023-08-21T11:57:14;100725.39;;;29.72;45.08
59686;BME280;45554;51.096;16.976;2023-08-21T11:59:41;100730.38;;;29.84;44.87
59686;BME280;45554;51.096;16.976;2023-08-21T12:02:09;100732.73;;;29.95;44.67
59686;BME280;45554;51.096;16.976;2023-08-21T12:04:35;100728.24;;;30.09;44.30
59686;BME280;45554;51.096;16.976;2023-08-21T12:07:02;100727.69;;;30.16;43.79
59686;BME280;45554;51.096;16.976;2023-08-21T12:09:29;100726.33;;;30.21;43.89
59686;BME280;45554;51.096;16.976;2023-08-21T12:11:55;100725.83;;;30.42;43.89
59686;BME280;45554;51.096;16.976;2023-08-21T12:14:23;100720.27;;;30.58;43.14
59686;BME280;45554;51.096;16.976;2023-08-21T12:16:49;100717.26;;;30.67;42.92
59686;BME280;45554;51.096;16.976;2023-08-21T12:19:16;100716.66;;;30.81;42.71
59686;BME280;45554;51.096;16.976;2023-08-21T12:21:42;100714.19;;;30.93;42.40
59686;BME280;45554;51.096;16.976;2023-08-21T12:24:09;100708.08;;;31.14;42.68
59686;BME280;45554;51.096;16.976;2023-08-21T12:26:36;100705.67;;;31.39;42.30
59686;BME280;45554;51.096;16.976;2023-08-21T12:29:24;100698.59;;;31.56;41.88
59686;BME280;45554;51.096;16.976;2023-08-21T12:31:50;100696.55;;;31.76;41.76
59686;BME280;45554;51.096;16.976;2023-08-21T12:34:17;100696.73;;;31.86;41.11
59686;BME280;45554;51.096;16.976;2023-08-21T12:36:44;100692.74;;;32.06;41.46
59686;BME280;45554;51.096;16.976;2023-08-21T12:39:11;100691.56;;;32.35;41.40
59686;BME280;45554;51.096;16.976;2023-08-21T12:41:37;100687.87;;;32.66;40.97
59686;BME280;45554;51.096;16.976;2023-08-21T12:44:04;100687.39;;;32.94;40.43
59686;BME280;45554;51.096;16.976;2023-08-21T12:46:30;100684.54;;;33.11;40.22
59686;BME280;45554;51.096;16.976;2023-08-21T12:48:57;100686.55;;;33.35;39.67
59686;BME280;45554;51.096;16.976;2023-08-21T12:51:23;100682.89;;;33.44;39.30